Terminal Aerodrome Forecast
Issued by NWS

Home | Current Version | Previous Version | Graphics & Text | Print | Product List | Glossary On
Versions: 1 2 3 4 5 6 7 8 9 10 11 12 13 14 15
000
FTUS42 KMHX 022041 AAA
TAFISO
TAF AMD
KISO 022041Z 0221/0318 VRB06KT P6SM VCTS SCT020 BKN040CB
      TEMPO 0221/0222 6SM -SHRA BKN015
     FM030100 03003KT P6SM VCSH SCT015 OVC040
     FM030800 05003KT 3SM BR VCSH BKN009
     FM031300 VRB05KT P6SM VCTS BKN025CB
      AMD LTD TO CLD VIS AND WIND=

USA.gov is the U.S. government's official web portal to all federal, state and local government web resources and services.